Time;durP1;ratioP1;P1;durP2;ratioP2;P2;SDS_P1;SDS_P2;PMS_P1;PMS_P2;Temp;Humidity;BMP_temperature;BMP_pressure;BME280_temperature;BME280_humidity;BME280_pressure;Samples;Min_cycle;Max_cycle;Signal;HPM_P1;HPM_P2
2021/09/09 00:00:37;;;;;;;12.95;5.47;;;;;;;23.62;61.54;101110.56;4999922;28;20399;-75
2021/09/09 00:03:05;;;;;;;12.88;5.72;;;;;;;23.70;61.33;101110.28;4993072;28;20047;-74
2021/09/09 00:05:55;;;;;;;11.13;5.57;;;;;;;23.75;61.27;101103.84;5000775;28;20105;-75
2021/09/09 00:08:23;;;;;;;11.27;5.13;;;;;;;23.78;61.16;101106.41;5001731;28;20045;-74
2021/09/09 00:10:51;;;;;;;12.98;5.45;;;;;;;23.79;61.10;101108.19;4994440;28;20126;-75
2021/09/09 00:13:18;;;;;;;15.57;5.88;;;;;;;23.80;61.29;101103.66;4997685;28;20046;-75
2021/09/09 00:15:46;;;;;;;14.20;5.25;;;;;;;23.70;61.57;101103.06;4990599;28;20043;-75
2021/09/09 00:18:13;;;;;;;11.90;5.10;;;;;;;23.68;61.73;101104.97;4991328;28;20399;-73
2021/09/09 00:20:41;;;;;;;12.85;6.10;;;;;;;23.71;61.69;101109.34;4995947;28;20034;-74
2021/09/09 00:23:10;;;;;;;19.98;6.20;;;;;;;23.69;61.89;101105.84;4999117;28;20100;-75
2021/09/09 00:25:38;;;;;;;15.98;6.55;;;;;;;23.61;62.19;101103.41;4992102;28;20038;-75
2021/09/09 00:28:05;;;;;;;16.98;5.63;;;;;;;23.66;62.11;101111.31;4998491;28;20046;-75
2021/09/09 00:30:33;;;;;;;14.90;5.95;;;;;;;23.72;62.00;101112.00;4999214;28;20057;-75
2021/09/09 00:33:00;;;;;;;16.02;5.53;;;;;;;23.76;62.01;101116.34;4999457;28;20097;-75
2021/09/09 00:35:28;;;;;;;15.57;5.40;;;;;;;23.79;61.93;101118.97;4991450;28;20046;-75
2021/09/09 00:37:55;;;;;;;12.32;5.55;;;;;;;23.83;61.81;101115.22;4991036;28;20411;-75
2021/09/09 00:40:24;;;;;;;16.17;5.28;;;;;;;23.88;61.75;101120.47;4992499;28;20042;-75
2021/09/09 00:42:51;;;;;;;11.75;5.18;;;;;;;23.89;61.56;101118.66;5001335;28;20042;-75
2021/09/09 00:45:18;;;;;;;11.85;5.10;;;;;;;23.88;61.75;101119.59;4999915;28;20390;-75
2021/09/09 00:47:46;;;;;;;14.70;5.82;;;;;;;23.86;61.91;101116.06;5010329;28;20053;-76
2021/09/09 00:50:14;;;;;;;15.63;6.28;;;;;;;23.78;62.13;101111.78;5003031;28;20050;-75
2021/09/09 00:52:44;;;;;;;15.32;6.28;;;;;;;23.79;62.14;101110.00;5010135;28;20141;-75
2021/09/09 00:55:12;;;;;;;14.63;5.35;;;;;;;23.79;62.12;101113.56;5011502;28;20050;-75
2021/09/09 00:57:41;;;;;;;14.75;5.97;;;;;;;23.79;62.02;101116.25;4999324;28;20039;-76
2021/09/09 01:00:10;;;;;;;17.00;5.43;;;;;;;23.75;62.23;101114.63;4998349;28;20057;-76
2021/09/09 01:02:37;;;;;;;14.05;5.93;;;;;;;23.75;62.21;101121.81;4995967;28;20121;-76
2021/09/09 01:05:06;;;;;;;13.05;6.38;;;;;;;23.73;62.38;101119.16;4986513;28;20041;-75
2021/09/09 01:07:34;;;;;;;14.98;6.15;;;;;;;23.75;62.37;101113.72;5014532;28;20498;-75
2021/09/09 01:10:01;;;;;;;19.77;6.15;;;;;;;23.79;62.44;101113.56;5014497;28;20445;-75
2021/09/09 01:12:29;;;;;;;13.07;5.25;;;;;;;23.83;62.28;101117.03;5009993;28;20050;-75
2021/09/09 01:14:58;;;;;;;14.40;5.47;;;;;;;23.87;62.30;101115.13;4994340;28;20041;-76
2021/09/09 01:17:25;;;;;;;18.35;5.80;;;;;;;23.88;62.31;101117.78;4993926;28;20054;-75
2021/09/09 01:19:53;;;;;;;16.00;6.28;;;;;;;23.89;62.20;101110.56;4995889;28;20398;-76
2021/09/09 01:22:21;;;;;;;13.00;5.85;;;;;;;23.86;62.55;101113.38;4997176;28;20049;-76
2021/09/09 01:24:49;;;;;;;11.60;5.50;;;;;;;23.84;62.49;101113.41;4978340;28;20050;-75
2021/09/09 01:27:18;;;;;;;13.35;6.03;;;;;;;23.81;62.77;101111.72;5012938;28;20038;-75
2021/09/09 01:29:46;;;;;;;15.10;5.65;;;;;;;23.81;62.71;101116.22;5009219;28;20084;-75
2021/09/09 01:32:14;;;;;;;14.85;5.85;;;;;;;23.79;62.70;101112.69;4994808;28;20053;-74
2021/09/09 01:34:42;;;;;;;10.43;5.28;;;;;;;23.74;62.73;101102.06;4997197;28;20042;-75
2021/09/09 01:37:11;;;;;;;11.35;5.50;;;;;;;23.70;62.96;101096.78;5034368;28;20038;-75
2021/09/09 01:39:42;;;;;;;9.93;5.20;;;;;;;23.65;63.24;101094.25;5025958;28;20042;-75
2021/09/09 01:42:11;;;;;;;13.93;6.00;;;;;;;23.59;63.21;101097.16;4997039;28;20364;-75
2021/09/09 01:44:38;;;;;;;11.40;5.15;;;;;;;23.52;63.31;101097.41;5002015;28;20042;-74
2021/09/09 01:47:06;;;;;;;13.50;6.13;;;;;;;23.46;63.56;101093.06;5004174;28;20038;-75
2021/09/09 01:49:34;;;;;;;13.98;6.03;;;;;;;23.51;63.25;101103.72;5006314;28;20043;-75
2021/09/09 01:52:01;;;;;;;22.80;6.13;;;;;;;23.56;63.16;101102.69;4993121;28;20529;-74
2021/09/09 01:54:29;;;;;;;10.20;5.22;;;;;;;23.61;63.27;101100.69;4994350;28;20042;-74
2021/09/09 01:56:56;;;;;;;11.15;5.55;;;;;;;23.62;63.11;101090.81;5011584;28;20655;-75
2021/09/09 01:59:25;;;;;;;16.00;6.07;;;;;;;23.64;63.23;101102.41;5010549;28;20042;-74
2021/09/09 02:01:53;;;;;;;10.50;5.85;;;;;;;23.67;63.14;101102.31;5006396;28;20038;-75
2021/09/09 02:04:20;;;;;;;15.73;6.07;;;;;;;23.68;63.18;101104.97;5013002;28;20046;-75
2021/09/09 02:06:48;;;;;;;14.48;6.13;;;;;;;23.72;63.15;101095.81;5006990;28;20042;-75
2021/09/09 02:09:15;;;;;;;19.20;5.90;;;;;;;23.74;63.33;101096.66;4998520;28;20045;-74
2021/09/09 02:11:42;;;;;;;14.38;5.95;;;;;;;23.69;63.63;101095.06;5011601;28;20035;-69
2021/09/09 02:14:10;;;;;;;13.63;5.80;;;;;;;23.67;63.71;101091.53;5011429;28;20482;-75
2021/09/09 02:16:39;;;;;;;12.05;6.60;;;;;;;23.66;63.69;101095.16;4992651;28;20057;-75
2021/09/09 02:19:06;;;;;;;12.00;5.45;;;;;;;23.63;63.97;101085.34;4974811;28;20042;-75
2021/09/09 02:21:34;;;;;;;11.50;5.97;;;;;;;23.59;64.09;101083.69;4984476;28;20042;-75
2021/09/09 02:24:01;;;;;;;12.88;6.95;;;;;;;23.56;64.14;101080.22;4994315;28;20046;-74
2021/09/09 02:26:29;;;;;;;14.00;5.75;;;;;;;23.51;64.22;101074.06;5002498;28;20414;-75
2021/09/09 02:28:56;;;;;;;14.30;6.15;;;;;;;23.51;64.38;101079.47;5012934;28;20041;-75
2021/09/09 02:31:23;;;;;;;15.60;5.70;;;;;;;23.51;64.27;101079.47;4993392;28;20046;-75
2021/09/09 02:33:53;;;;;;;12.07;5.60;;;;;;;23.51;64.49;101084.84;4994456;28;20050;-75
2021/09/09 02:36:20;;;;;;;13.30;6.45;;;;;;;23.50;64.39;101083.97;4998266;28;20066;-75
2021/09/09 02:38:47;;;;;;;18.98;6.10;;;;;;;23.47;64.46;101081.41;5012982;28;20044;-74
2021/09/09 02:41:15;;;;;;;17.85;6.13;;;;;;;23.45;64.61;101081.41;4996867;28;20517;-74
2021/09/09 02:43:42;;;;;;;10.82;5.75;;;;;;;23.49;64.53;101081.34;4994681;28;20049;-74
2021/09/09 02:46:10;;;;;;;13.50;5.85;;;;;;;23.49;64.62;101081.34;4992999;28;20043;-74
2021/09/09 02:48:37;;;;;;;18.30;6.55;;;;;;;23.51;64.61;101088.44;5008263;28;20049;-74
2021/09/09 02:51:06;;;;;;;14.32;6.18;;;;;;;23.53;64.80;101085.69;5005766;28;20050;-74
2021/09/09 02:53:33;;;;;;;12.40;5.55;;;;;;;23.55;64.63;101091.94;4992942;28;20050;-74
2021/09/09 02:56:01;;;;;;;14.73;5.68;;;;;;;23.56;64.64;101088.31;4994074;28;20042;-74
2021/09/09 02:58:28;;;;;;;12.00;6.18;;;;;;;23.52;64.72;101090.22;5007562;28;20387;-74
2021/09/09 03:00:55;;;;;;;14.27;5.70;;;;;;;23.55;64.67;101098.22;5011618;28;20095;-74
2021/09/09 03:03:23;;;;;;;11.68;5.68;;;;;;;23.59;64.50;101104.38;5009480;28;20045;-74
2021/09/09 03:05:50;;;;;;;17.83;6.00;;;;;;;23.54;64.62;101098.25;5011118;28;20038;-74
2021/09/09 03:08:19;;;;;;;18.17;6.70;;;;;;;23.51;64.75;101101.91;4991863;28;20441;-73
2021/09/09 03:10:47;;;;;;;10.07;5.63;;;;;;;23.50;64.69;101102.84;4991674;28;20050;-74
2021/09/09 03:13:14;;;;;;;18.10;6.22;;;;;;;23.50;64.64;101097.44;4998918;28;20060;-74
2021/09/09 03:15:42;;;;;;;12.35;5.70;;;;;;;23.48;64.66;101102.03;5000319;28;20390;-74
2021/09/09 03:18:09;;;;;;;13.73;6.43;;;;;;;23.47;64.67;101093.94;5008059;28;20470;-75
2021/09/09 03:20:36;;;;;;;16.30;5.78;;;;;;;23.47;64.65;101096.66;4994449;28;20517;-75
2021/09/09 03:23:04;;;;;;;13.43;5.55;;;;;;;23.49;64.46;101105.59;4992554;28;20053;-75
2021/09/09 03:25:33;;;;;;;18.95;6.30;;;;;;;23.51;64.34;101107.31;4993684;28;20039;-74
2021/09/09 03:28:00;;;;;;;13.20;6.47;;;;;;;23.50;64.25;101108.22;4992605;28;20038;-75
2021/09/09 03:30:28;;;;;;;12.32;5.93;;;;;;;23.51;64.07;101115.38;4993071;28;20503;-75
2021/09/09 03:32:56;;;;;;;11.50;5.90;;;;;;;23.47;63.98;101112.81;5000160;28;20038;-75
2021/09/09 03:35:24;;;;;;;12.60;6.30;;;;;;;23.41;64.13;101114.78;4989384;28;20041;-75
2021/09/09 03:37:51;;;;;;;14.50;6.35;;;;;;;23.38;64.15;101120.25;4992716;28;20534;-75
2021/09/09 03:40:18;;;;;;;14.90;6.45;;;;;;;23.36;64.12;101105.09;4998853;28;20558;-74
2021/09/09 03:42:47;;;;;;;13.95;5.60;;;;;;;23.34;64.16;101115.03;4994057;28;20045;-74
2021/09/09 03:45:15;;;;;;;10.35;5.53;;;;;;;23.30;64.23;101116.91;4996743;28;20042;-74
2021/09/09 03:47:42;;;;;;;10.88;6.57;;;;;;;23.30;64.21;101116.06;4994013;28;20038;-74
2021/09/09 03:50:10;;;;;;;12.85;5.97;;;;;;;23.28;63.99;101121.50;4994800;28;20438;-74
2021/09/09 03:52:38;;;;;;;12.88;5.82;;;;;;;23.27;64.16;101121.53;5010149;28;20045;-74
2021/09/09 03:55:07;;;;;;;15.57;6.07;;;;;;;23.25;64.12;101123.38;5008651;28;20394;-75
2021/09/09 03:57:34;;;;;;;17.67;6.70;;;;;;;23.22;64.14;101119.00;4992469;28;20044;-74
2021/09/09 04:00:07;;;;;;;12.13;6.50;;;;;;;23.20;64.19;101120.84;4993994;28;20034;-74
2021/09/09 04:02:34;;;;;;;13.65;6.35;;;;;;;23.18;64.33;101124.50;4991687;28;20050;-74
2021/09/09 04:05:02;;;;;;;12.30;6.20;;;;;;;23.20;64.23;101125.34;4993947;28;20038;-74
2021/09/09 04:07:29;;;;;;;14.30;6.15;;;;;;;23.20;64.15;101122.66;4991868;28;20422;-75
2021/09/09 04:09:57;;;;;;;15.63;6.25;;;;;;;23.19;64.18;101124.47;4992494;28;20046;-75
2021/09/09 04:12:25;;;;;;;12.52;6.10;;;;;;;23.21;64.11;101124.41;4995676;28;20428;-74
2021/09/09 04:14:52;;;;;;;17.00;6.20;;;;;;;23.16;64.12;101123.69;5008161;28;20045;-74
2021/09/09 04:17:21;;;;;;;14.07;6.32;;;;;;;23.15;64.07;101127.28;5001731;28;20035;-74
2021/09/09 04:19:48;;;;;;;9.57;6.20;;;;;;;23.15;64.03;101125.50;4992756;28;20042;-74
2021/09/09 04:22:16;;;;;;;12.55;6.13;;;;;;;23.14;63.95;101129.09;4991799;28;20125;-74
2021/09/09 04:24:43;;;;;;;14.73;5.80;;;;;;;23.14;64.01;101121.03;5000794;28;20046;-73
2021/09/09 04:27:10;;;;;;;12.63;6.63;;;;;;;23.14;64.14;101122.84;4992145;28;20394;-75
2021/09/09 04:29:38;;;;;;;13.43;6.00;;;;;;;23.17;64.04;101131.69;4995167;28;20194;-74
2021/09/09 04:32:06;;;;;;;15.00;6.28;;;;;;;23.22;63.96;101128.88;4991351;28;20043;-74
2021/09/09 04:34:35;;;;;;;15.20;6.15;;;;;;;23.29;63.97;101139.44;4991185;28;20054;-74
2021/09/09 04:37:02;;;;;;;14.77;6.03;;;;;;;23.29;63.97;101134.03;4982715;28;20506;-75
2021/09/09 04:39:29;;;;;;;11.43;5.72;;;;;;;23.31;63.95;101136.66;5000882;28;20049;-75
2021/09/09 04:41:59;;;;;;;13.30;5.50;;;;;;;23.40;63.92;101139.97;5005715;28;20044;-74
2021/09/09 04:44:27;;;;;;;10.93;5.45;;;;;;;23.50;63.98;101140.56;4995674;28;20042;-74
2021/09/09 04:46:55;;;;;;;12.05;4.97;;;;;;;23.65;63.65;101136.50;4990753;28;20057;-75
2021/09/09 04:49:22;;;;;;;11.63;5.38;;;;;;;23.75;63.58;101130.78;4991763;28;20514;-75
2021/09/09 04:51:51;;;;;;;12.15;5.35;;;;;;;23.87;63.69;101128.63;4999358;28;20130;-75
2021/09/09 04:54:19;;;;;;;14.00;5.13;;;;;;;23.95;63.66;101123.84;4991181;28;20379;-74
2021/09/09 04:56:46;;;;;;;9.63;4.70;;;;;;;24.04;63.52;101131.63;4992569;28;20038;-74
2021/09/09 04:59:14;;;;;;;14.18;4.88;;;;;;;24.11;63.44;101125.97;4997113;28;20485;-72
2021/09/09 05:01:41;;;;;;;11.80;4.55;;;;;;;24.12;63.32;101127.72;5005242;28;20121;-74
2021/09/09 05:04:09;;;;;;;10.40;4.80;;;;;;;24.14;63.42;101130.38;4992183;28;20497;-74
2021/09/09 05:06:36;;;;;;;10.70;4.80;;;;;;;24.14;63.18;101130.38;4996278;28;20046;-75
2021/09/09 05:09:05;;;;;;;11.45;4.70;;;;;;;24.11;63.20;101127.78;4992522;28;20129;-74
2021/09/09 05:11:32;;;;;;;11.55;4.55;;;;;;;24.17;63.20;101123.06;4991096;28;20053;-74
2021/09/09 05:13:59;;;;;;;12.90;4.60;;;;;;;24.39;63.26;101125.91;4990638;28;20061;-73
2021/09/09 05:16:27;;;;;;;13.52;4.85;;;;;;;24.61;63.00;101126.88;4990948;28;20047;-73
2021/09/09 05:18:54;;;;;;;11.43;4.90;;;;;;;24.80;62.48;101128.94;4990865;28;20039;-74
2021/09/09 05:21:21;;;;;;;9.20;3.95;;;;;;;25.07;62.48;101124.34;4991986;28;20038;-75
2021/09/09 05:23:49;;;;;;;9.30;3.95;;;;;;;25.36;62.03;101132.19;4991303;28;20455;-75
2021/09/09 05:26:18;;;;;;;9.32;4.30;;;;;;;25.68;61.23;101129.09;5008423;28;20046;-74
2021/09/09 05:28:45;;;;;;;10.43;4.05;;;;;;;25.77;59.80;101125.13;5010783;28;20038;-74
2021/09/09 05:31:13;;;;;;;8.82;3.88;;;;;;;25.78;59.67;101125.09;4990768;28;20088;-75
2021/09/09 05:33:40;;;;;;;8.93;3.78;;;;;;;25.61;59.30;101115.88;5001983;28;20486;-74
2021/09/09 05:36:08;;;;;;;9.00;4.07;;;;;;;25.32;59.15;101120.63;4991938;28;20046;-74
2021/09/09 05:38:35;;;;;;;10.57;4.28;;;;;;;25.17;59.24;101121.22;5003249;28;20057;-74
2021/09/09 05:41:02;;;;;;;8.10;4.25;;;;;;;25.12;58.76;101125.03;5011732;28;20034;-74
2021/09/09 05:43:32;;;;;;;17.00;5.85;;;;;;;25.23;58.68;101126.38;5012460;28;20054;-75
2021/09/09 05:45:59;;;;;;;6.72;3.80;;;;;;;25.41;58.45;101127.47;5013867;28;20045;-74
2021/09/09 05:48:26;;;;;;;12.52;4.15;;;;;;;25.42;58.08;101119.31;4997139;28;20047;-75
2021/09/09 05:50:54;;;;;;;10.38;4.53;;;;;;;25.36;58.04;101129.47;5002496;28;20422;-75
2021/09/09 05:53:21;;;;;;;9.18;4.28;;;;;;;25.28;58.02;101116.25;5010365;28;20383;-75
2021/09/09 05:55:48;;;;;;;9.50;4.50;;;;;;;25.19;57.79;101126.56;5012628;28;20492;-75
2021/09/09 05:58:16;;;;;;;12.65;4.68;;;;;;;25.16;57.67;101130.25;5013497;28;20046;-74
2021/09/09 06:00:45;;;;;;;11.13;4.10;;;;;;;25.42;57.17;101121.13;5013947;28;20379;-69
2021/09/09 06:03:13;;;;;;;12.45;3.80;;;;;;;25.85;56.77;101117.59;5012063;28;20038;-75
2021/09/09 06:05:41;;;;;;;9.57;4.10;;;;;;;25.97;55.98;101129.72;4997145;28;20042;-75
2021/09/09 06:08:08;;;;;;;9.63;3.58;;;;;;;26.22;56.15;101134.94;4992552;28;20039;-76
2021/09/09 06:10:36;;;;;;;9.63;3.67;;;;;;;26.48;55.23;101140.16;5004027;28;20049;-75
2021/09/09 06:13:03;;;;;;;11.95;3.90;;;;;;;26.78;55.09;101130.63;4994924;28;20110;-75
2021/09/09 06:15:31;;;;;;;8.35;4.15;;;;;;;27.24;54.22;101128.56;4993531;28;20049;-74
2021/09/09 06:18:00;;;;;;;7.50;3.30;;;;;;;27.66;53.18;101131.91;4992119;28;20057;-75
2021/09/09 06:20:29;;;;;;;7.97;3.25;;;;;;;27.90;52.24;101135.22;4992911;28;20508;-75
2021/09/09 06:22:57;;;;;;;9.95;3.35;;;;;;;28.23;51.70;101143.53;5003764;28;20556;-75
2021/09/09 06:25:24;;;;;;;9.15;3.03;;;;;;;28.10;51.16;101147.78;4994158;28;20046;-75
2021/09/09 06:27:52;;;;;;;10.27;3.50;;;;;;;27.91;51.25;101145.13;5004773;28;20038;-74
2021/09/09 06:30:19;;;;;;;11.20;3.15;;;;;;;28.05;51.17;101141.72;5010587;28;20042;-75
2021/09/09 06:32:46;;;;;;;6.68;3.05;;;;;;;28.33;50.85;101144.81;4990768;28;20383;-76
2021/09/09 06:35:15;;;;;;;13.65;3.70;;;;;;;28.55;50.12;101147.31;4992967;28;20129;-75
2021/09/09 06:37:43;;;;;;;8.55;3.00;;;;;;;28.44;50.27;101136.09;4996846;28;20037;-76
2021/09/09 06:40:10;;;;;;;6.95;2.90;;;;;;;28.48;49.82;101144.03;5011778;28;20049;-77
2021/09/09 06:42:39;;;;;;;9.32;3.55;;;;;;;28.51;48.90;101142.97;4992928;28;20041;-76
2021/09/09 06:45:08;;;;;;;9.23;3.58;;;;;;;28.24;49.78;101148.00;4991359;28;20573;-76
2021/09/09 06:47:35;;;;;;;11.30;3.55;;;;;;;28.12;49.99;101148.59;4992940;28;20049;-76
2021/09/09 06:50:03;;;;;;;7.80;3.10;;;;;;;28.02;50.10;101155.47;4993259;28;20045;-75
2021/09/09 06:52:32;;;;;;;8.85;4.35;;;;;;;27.88;50.37;101160.72;5003737;28;20050;-75
2021/09/09 06:55:00;;;;;;;13.65;3.80;;;;;;;27.83;50.60;101152.78;5010955;28;20033;-76
2021/09/09 06:57:27;;;;;;;9.07;4.10;;;;;;;28.02;50.44;101153.66;5009078;28;20046;-74
2021/09/09 06:59:55;;;;;;;8.88;3.38;;;;;;;28.43;50.01;101159.69;5008604;28;20027;-75
2021/09/09 07:02:22;;;;;;;12.88;3.42;;;;;;;28.71;49.60;101153.66;4993251;28;20383;-74
2021/09/09 07:04:50;;;;;;;9.18;3.03;;;;;;;29.33;48.69;101160.28;4992387;28;20495;-74
2021/09/09 07:07:17;;;;;;;7.53;3.47;;;;;;;29.59;47.85;101167.00;4991300;28;20057;-75
2021/09/09 07:09:46;;;;;;;14.00;3.78;;;;;;;29.14;48.34;101160.44;4992260;28;20042;-73
2021/09/09 07:12:14;;;;;;;12.90;4.20;;;;;;;28.73;48.88;101164.47;5002719;28;20096;-73
2021/09/09 07:14:41;;;;;;;9.52;3.40;;;;;;;28.73;49.01;101167.19;5008608;28;20180;-75
2021/09/09 07:17:09;;;;;;;12.32;3.70;;;;;;;28.81;49.06;101171.28;4997322;28;20050;-75
2021/09/09 07:19:36;;;;;;;15.00;4.95;;;;;;;29.23;48.57;101175.34;4992907;28;20045;-75
2021/09/09 07:22:04;;;;;;;10.45;3.45;;;;;;;29.65;47.78;101172.97;4998155;28;20046;-75
2021/09/09 07:24:32;;;;;;;5.82;3.20;;;;;;;30.14;47.14;101170.13;5010079;28;20048;-75
2021/09/09 07:27:01;;;;;;;9.20;3.40;;;;;;;30.63;46.43;101169.94;4991795;28;20034;-77
2021/09/09 07:29:28;;;;;;;13.52;3.03;;;;;;;31.02;45.55;101170.19;5008432;28;20039;-76
2021/09/09 07:31:55;;;;;;;9.57;3.53;;;;;;;31.08;45.54;101172.56;5004581;28;20039;-77
2021/09/09 07:34:22;;;;;;;7.70;3.00;;;;;;;30.75;45.58;101177.34;4992671;28;20454;-77
2021/09/09 07:36:50;;;;;;;9.00;3.45;;;;;;;30.36;45.84;101173.34;5012002;28;20030;-76
2021/09/09 07:39:18;;;;;;;11.55;3.15;;;;;;;30.30;45.66;101170.09;5010769;28;20049;-76
2021/09/09 07:41:45;;;;;;;12.70;3.55;;;;;;;30.82;45.11;101182.34;5002438;28;20072;-76
2021/09/09 07:44:14;;;;;;;8.82;3.13;;;;;;;30.74;44.78;101170.16;5013127;28;20087;-76
2021/09/09 07:46:42;;;;;;;9.73;3.47;;;;;;;30.39;45.32;101178.59;4994452;28;20115;-76
2021/09/09 07:49:10;;;;;;;9.13;3.15;;;;;;;30.00;45.93;101179.09;4990482;28;20042;-76
2021/09/09 07:51:37;;;;;;;8.50;3.28;;;;;;;29.56;46.27;101180.75;4990964;28;20050;-76
2021/09/09 07:54:04;;;;;;;11.13;3.40;;;;;;;29.34;46.76;101181.13;4997864;28;20042;-76
2021/09/09 07:56:32;;;;;;;12.23;3.90;;;;;;;29.29;47.40;101186.75;5008867;28;20046;-76
2021/09/09 07:58:59;;;;;;;7.93;3.20;;;;;;;29.44;47.73;101184.19;5009149;28;20571;-77
2021/09/09 08:01:29;;;;;;;9.50;3.75;;;;;;;29.87;46.91;101178.03;5010779;28;20042;-77
2021/09/09 08:03:56;;;;;;;9.13;3.17;;;;;;;29.81;47.12;101183.84;5011438;28;20058;-78
2021/09/09 08:06:24;;;;;;;10.18;3.67;;;;;;;29.86;47.51;101176.31;5010778;28;20037;-76
2021/09/09 08:08:51;;;;;;;10.57;3.42;;;;;;;29.79;47.34;101191.25;5009424;28;20045;-78
2021/09/09 08:11:18;;;;;;;7.70;2.97;;;;;;;29.53;47.65;101187.28;5010049;28;20074;-77
2021/09/09 08:13:45;;;;;;;6.15;3.25;;;;;;;29.23;48.26;101187.09;5010855;28;20042;-75
2021/09/09 08:16:13;;;;;;;7.38;3.17;;;;;;;29.32;48.55;101183.88;5010397;28;20538;-76
2021/09/09 08:18:41;;;;;;;11.90;3.13;;;;;;;29.47;48.53;101186.75;5010401;28;20056;-76
2021/09/09 08:21:09;;;;;;;12.13;3.72;;;;;;;29.90;47.96;101188.75;5009524;28;20402;-76
2021/09/09 08:23:36;;;;;;;5.68;2.88;;;;;;;30.22;46.85;101200.53;5010003;28;20057;-76
2021/09/09 08:26:04;;;;;;;8.93;3.17;;;;;;;29.97;47.05;101195.66;5009467;28;20056;-77
2021/09/09 08:28:31;;;;;;;10.10;3.53;;;;;;;29.83;47.10;101203.69;5009426;28;20541;-77
2021/09/09 08:30:58;;;;;;;8.77;2.70;;;;;;;30.16;46.57;101192.72;5007887;28;20045;-76
2021/09/09 08:33:26;;;;;;;9.30;3.28;;;;;;;30.53;45.92;101199.59;5009694;28;20060;-76
2021/09/09 08:35:55;;;;;;;8.95;3.33;;;;;;;30.39;46.01;101199.53;5009867;28;20081;-76
2021/09/09 08:38:22;;;;;;;8.70;3.17;;;;;;;30.42;45.86;101202.06;5010273;28;20437;-77
2021/09/09 08:40:52;;;;;;;7.63;2.80;;;;;;;30.52;45.61;101203.31;5010268;28;20109;-77
2021/09/09 08:43:19;;;;;;;8.82;3.20;;;;;;;30.69;45.71;101200.44;5010583;28;20046;-77
2021/09/09 08:45:47;;;;;;;10.23;3.72;;;;;;;30.40;45.82;101204.00;5010654;28;20038;-76
2021/09/09 08:48:15;;;;;;;11.05;3.25;;;;;;;30.26;45.94;101204.81;5008090;28;20049;-75
2021/09/09 08:50:43;;;;;;;11.57;3.63;;;;;;;29.92;45.59;101203.22;5009458;28;20514;-75
2021/09/09 08:53:12;;;;;;;10.27;3.35;;;;;;;29.64;45.97;101206.59;5009778;28;20109;-77
2021/09/09 08:55:39;;;;;;;8.38;3.25;;;;;;;29.50;46.30;101202.88;4990449;28;20085;-76
2021/09/09 08:58:07;;;;;;;5.65;2.72;;;;;;;29.46;46.30;101198.59;4997857;28;20046;-75
2021/09/09 09:00:34;;;;;;;9.43;3.13;;;;;;;29.83;46.13;101187.34;4990358;28;20050;-75
2021/09/09 09:03:01;;;;;;;10.48;3.53;;;;;;;29.79;46.06;101193.97;4992731;28;20045;-76
2021/09/09 09:05:29;;;;;;;7.78;3.30;;;;;;;30.04;45.96;101191.59;4990433;28;20494;-76
2021/09/09 09:07:58;;;;;;;8.18;2.75;;;;;;;30.27;45.57;101189.34;4994226;28;20045;-76
2021/09/09 09:10:28;;;;;;;9.63;2.50;;;;;;;30.46;44.83;101188.16;4994183;28;20046;-76
2021/09/09 09:12:55;;;;;;;6.13;2.35;;;;;;;30.48;44.14;101183.50;4992563;28;20415;-77
2021/09/09 09:15:24;;;;;;;6.90;2.78;;;;;;;30.36;44.23;101191.53;4997362;28;20034;-76
2021/09/09 09:18:04;;;;;;;6.85;2.97;;;;;;;30.05;44.42;101193.38;4993667;28;20046;-76
2021/09/09 09:20:44;;;;;;;6.90;2.55;;;;;;;30.18;44.38;101196.25;4992459;28;20118;-76
2021/09/09 09:23:19;;;;;;;10.07;3.30;;;;;;;30.56;43.93;101199.41;5009075;28;20493;-76
2021/09/09 09:26:02;;;;;;;8.23;2.50;;;;;;;30.38;44.07;101200.50;5013338;28;20053;-75
2021/09/09 09:28:44;;;;;;;11.10;3.05;;;;;;;30.58;43.94;101202.06;5004991;28;20046;-76
2021/09/09 09:31:14;;;;;;;6.53;2.30;;;;;;;30.79;43.78;101201.59;5013928;28;20466;-75
2021/09/09 09:33:43;;;;;;;7.13;3.58;;;;;;;30.97;43.18;101206.91;5012467;28;20046;-76
2021/09/09 09:36:18;;;;;;;7.10;2.60;;;;;;;31.12;43.08;101200.50;5012345;28;20050;-76
2021/09/09 09:38:46;;;;;;;7.80;2.55;;;;;;;31.06;42.95;101192.72;5012588;28;20042;-75
2021/09/09 09:41:19;;;;;;;6.10;3.13;;;;;;;30.97;42.70;101196.88;5013849;28;20041;-75
2021/09/09 09:43:59;;;;;;;7.40;2.45;;;;;;;31.03;42.31;101201.94;5011227;28;20041;-75
2021/09/09 09:46:36;;;;;;;9.55;3.50;;;;;;;31.18;42.31;101200.13;5008934;28;20464;-77
2021/09/09 09:49:23;;;;;;;8.65;2.78;;;;;;;31.39;41.68;101198.75;5000313;28;20049;-76
2021/09/09 09:51:52;;;;;;;8.15;2.70;;;;;;;31.55;41.52;101198.66;5013492;28;20041;-76
2021/09/09 09:54:21;;;;;;;8.55;2.55;;;;;;;31.66;41.77;101202.47;5004111;28;20034;-75
2021/09/09 09:56:50;;;;;;;10.93;2.78;;;;;;;31.70;41.90;101205.91;4993886;28;20387;-76
2021/09/09 09:59:19;;;;;;;8.90;2.65;;;;;;;31.64;41.90;101204.41;4993616;28;20031;-76
2021/09/09 10:01:46;;;;;;;7.78;2.60;;;;;;;31.37;42.42;101203.47;4997107;28;20045;-76
2021/09/09 10:04:15;;;;;;;9.18;2.50;;;;;;;31.47;42.19;101209.19;4998404;28;20070;-77
2021/09/09 10:06:44;;;;;;;7.90;2.42;;;;;;;31.32;42.46;101208.31;4996006;28;20050;-77
2021/09/09 10:09:13;;;;;;;8.95;2.63;;;;;;;31.45;41.99;101211.13;4997793;28;20434;-76
2021/09/09 10:11:40;;;;;;;6.80;2.55;;;;;;;31.55;41.81;101201.38;5013103;28;20088;-75
2021/09/09 10:14:10;;;;;;;5.82;2.58;;;;;;;31.81;41.75;101205.19;5012270;28;20034;-77
2021/09/09 10:16:42;;;;;;;9.18;2.50;;;;;;;31.94;41.50;101195.19;5012078;28;20042;-76
2021/09/09 10:19:12;;;;;;;9.55;2.72;;;;;;;32.03;41.64;101192.69;5011660;28;20042;-77
2021/09/09 10:21:45;;;;;;;7.18;2.25;;;;;;;32.01;41.30;101185.59;5011786;28;20045;-77
2021/09/09 10:24:16;;;;;;;9.15;3.20;;;;;;;31.51;42.13;101186.16;4993600;28;20038;-77
2021/09/09 10:26:43;;;;;;;12.30;2.60;;;;;;;31.32;42.27;101177.41;5008049;28;20053;-77
2021/09/09 10:29:44;;;;;;;7.13;2.47;;;;;;;31.43;42.33;101185.81;5012116;28;20041;-78
2021/09/09 10:32:54;;;;;;;13.80;2.97;;;;;;;31.44;42.54;101176.66;5007201;28;20041;-78
2021/09/09 10:35:42;;;;;;;7.13;2.50;;;;;;;31.15;42.82;101186.69;4972428;28;20481;-77
2021/09/09 10:38:29;;;;;;;7.85;2.33;;;;;;;30.85;43.57;101187.59;4989744;28;20067;-76
2021/09/09 10:40:58;;;;;;;6.93;2.78;;;;;;;30.81;43.70;101202.41;4995770;28;20502;-77
2021/09/09 10:43:46;;;;;;;7.50;2.28;;;;;;;31.03;43.56;101201.06;4992922;28;20050;-76
2021/09/09 10:46:15;;;;;;;5.60;2.50;;;;;;;30.88;43.58;101197.44;4992661;28;20062;-77
2021/09/09 10:48:47;;;;;;;9.98;2.53;;;;;;;30.70;43.91;101193.13;5012600;28;20132;-77
2021/09/09 10:51:19;;;;;;;6.78;2.47;;;;;;;30.54;43.88;101178.66;5011453;28;20061;-74
2021/09/09 10:53:54;;;;;;;7.35;2.10;;;;;;;30.64;44.07;101183.47;5012227;28;20045;-77
2021/09/09 10:56:23;;;;;;;11.68;2.70;;;;;;;30.92;43.65;101173.59;5011509;28;20050;-76
2021/09/09 10:59:09;;;;;;;8.88;2.40;;;;;;;31.12;43.28;101181.41;5012595;28;20049;-78
2021/09/09 11:01:37;;;;;;;6.57;2.38;;;;;;;31.09;43.09;101187.97;5011513;28;20065;-77
2021/09/09 11:04:07;;;;;;;7.60;2.47;;;;;;;31.08;43.10;101191.66;5011479;28;21563;-77
2021/09/09 11:06:34;;;;;;;10.65;2.60;;;;;;;31.15;43.24;101194.88;5010364;28;20141;-77
2021/09/09 11:09:14;;;;;;;6.97;2.42;;;;;;;31.02;43.33;101189.28;5010710;28;20042;-76
2021/09/09 11:11:46;;;;;;;9.70;2.75;;;;;;;31.06;43.10;101192.72;5011912;28;20034;-78
2021/09/09 11:14:14;;;;;;;7.55;2.38;;;;;;;31.13;42.71;101191.34;5012545;28;20062;-77
2021/09/09 11:16:44;;;;;;;9.27;2.50;;;;;;;31.07;42.46;101192.63;5010760;28;20042;-74
2021/09/09 11:19:13;;;;;;;5.22;1.92;;;;;;;31.20;42.92;101188.16;5011243;28;20045;-77
2021/09/09 11:21:42;;;;;;;8.32;2.17;;;;;;;31.73;41.96;101196.59;5011685;28;20482;-76
2021/09/09 11:24:11;;;;;;;10.02;2.33;;;;;;;32.09;41.29;101185.09;5011710;28;20121;-76
2021/09/09 11:26:40;;;;;;;8.88;2.30;;;;;;;32.10;41.16;101182.22;5008644;28;20038;-75